createdAt,value
2019-04-07T00:00:54.249Z,0.00
2019-04-07T00:01:54.048Z,0.00
2019-04-07T00:02:54.598Z,0.00
2019-04-07T00:03:54.055Z,0.00
2019-04-07T00:04:54.562Z,0.00
2019-04-07T00:05:54.035Z,0.00
2019-04-07T00:06:54.446Z,0.00
2019-04-07T00:07:54.151Z,0.00
2019-04-07T00:08:54.409Z,0.00
2019-04-07T00:09:54.210Z,0.00
2019-04-07T00:10:53.995Z,0.00
2019-04-07T00:11:53.946Z,0.00
2019-04-07T00:12:53.975Z,0.00
2019-04-07T00:13:53.925Z,0.00
2019-04-07T00:14:54.124Z,0.00
2019-04-07T00:15:53.905Z,0.00
2019-04-07T00:16:53.874Z,0.00
2019-04-07T00:17:54.349Z,0.00
2019-04-07T00:18:53.862Z,0.00
2019-04-07T00:19:53.842Z,0.00
2019-04-07T00:20:54.070Z,0.00
2019-04-07T00:21:54.006Z,0.00
2019-04-07T00:22:53.823Z,0.00
2019-04-07T00:23:54.323Z,0.00
2019-04-07T00:24:53.824Z,0.00
2019-04-07T00:25:53.846Z,0.00
2019-04-07T00:26:53.770Z,0.00
2019-04-07T00:27:53.759Z,0.00
2019-04-07T00:28:53.749Z,0.00
2019-04-07T00:29:54.277Z,0.00
2019-04-07T00:30:53.775Z,0.00
2019-04-07T00:31:53.715Z,0.00
2019-04-07T00:32:53.708Z,0.00
2019-04-07T00:33:53.694Z,0.00
2019-04-07T00:34:54.041Z,0.00
2019-04-07T00:35:53.677Z,0.00
2019-04-07T00:36:53.723Z,0.00
2019-04-07T00:37:53.854Z,0.00
2019-04-07T00:38:53.819Z,0.00
2019-04-07T00:39:54.097Z,0.00
2019-04-07T00:40:54.128Z,0.00
2019-04-07T00:41:53.632Z,0.00
2019-04-07T00:42:53.607Z,0.00
2019-04-07T00:43:53.579Z,0.00
2019-04-07T00:44:53.574Z,0.00
2019-04-07T00:45:53.556Z,0.00
2019-04-07T00:46:54.045Z,0.00
2019-04-07T00:47:53.682Z,0.00
2019-04-07T00:48:53.947Z,0.00
2019-04-07T00:49:53.520Z,0.00
2019-04-07T00:50:53.805Z,0.00
2019-04-07T00:51:53.850Z,0.00
2019-04-07T00:52:53.483Z,0.00
2019-04-07T00:53:53.915Z,0.00
2019-04-07T00:54:53.508Z,0.00
2019-04-07T00:55:54.007Z,0.00
2019-04-07T00:56:53.440Z,0.00
2019-04-07T00:57:53.419Z,0.00
2019-04-07T00:58:53.424Z,0.00
2019-04-07T00:59:54.044Z,0.00
2019-04-07T01:00:53.732Z,0.00
2019-04-07T01:01:53.738Z,0.00
2019-04-07T01:02:54.055Z,0.00
2019-04-07T01:03:53.463Z,0.00
2019-04-07T01:04:53.420Z,0.00
2019-04-07T01:05:53.335Z,0.00
2019-04-07T01:06:53.722Z,0.00
2019-04-07T01:07:53.333Z,0.00
2019-04-07T01:08:53.686Z,0.00
2019-04-07T01:09:53.346Z,0.00
2019-04-07T01:10:53.350Z,0.00
2019-04-07T01:11:53.848Z,0.00
2019-04-07T01:12:53.361Z,0.00
2019-04-07T01:13:53.940Z,0.00
2019-04-07T01:14:53.370Z,0.00
2019-04-07T01:15:53.759Z,0.00
2019-04-07T01:16:53.363Z,0.00
2019-04-07T01:17:53.338Z,0.00
2019-04-07T01:18:53.509Z,0.00
2019-04-07T01:19:53.575Z,0.00
2019-04-07T01:20:53.193Z,0.00
2019-04-07T01:21:53.591Z,0.00
2019-04-07T01:22:53.155Z,0.00
2019-04-07T01:23:53.286Z,0.00
2019-04-07T01:24:53.379Z,0.00
2019-04-07T01:25:53.186Z,0.00
2019-04-07T01:26:53.542Z,0.00
2019-04-07T01:27:53.108Z,0.00
2019-04-07T01:28:54.506Z,0.00
2019-04-07T01:29:53.061Z,0.00
2019-04-07T01:30:53.342Z,0.00
2019-04-07T01:31:53.314Z,0.00
2019-04-07T01:32:53.291Z,0.00
2019-04-07T01:33:53.182Z,0.00
2019-04-07T01:34:53.163Z,0.00
2019-04-07T01:35:53.065Z,0.00
2019-04-07T01:36:53.476Z,0.00
2019-04-07T01:37:52.993Z,0.00
2019-04-07T01:38:53.299Z,0.00
2019-04-07T01:39:52.965Z,0.00
2019-04-07T01:40:52.956Z,0.00
2019-04-07T01:41:52.936Z,0.00
2019-04-07T01:42:53.006Z,0.00
2019-04-07T01:43:53.565Z,0.00
2019-04-07T01:44:52.916Z,0.00
2019-04-07T01:45:53.394Z,0.00
2019-04-07T01:46:53.423Z,0.00
2019-04-07T01:47:52.906Z,0.00
2019-04-07T01:48:53.276Z,0.00
2019-04-07T01:49:52.860Z,0.00
2019-04-07T01:50:52.858Z,0.00
2019-04-07T01:51:53.000Z,0.00
2019-04-07T01:52:53.388Z,0.00
2019-04-07T01:53:53.140Z,0.00
2019-04-07T01:54:52.787Z,0.00
2019-04-07T01:55:52.785Z,0.00
2019-04-07T01:56:52.790Z,0.00
2019-04-07T01:57:52.780Z,0.00
2019-04-07T01:58:52.762Z,0.00
2019-04-07T01:59:52.816Z,0.00
2019-04-07T02:00:52.731Z,0.00
2019-04-07T02:01:52.724Z,0.00
2019-04-07T02:02:52.726Z,0.00
2019-04-07T02:03:52.787Z,0.00
2019-04-07T02:04:52.874Z,0.00
2019-04-07T02:05:59.296Z,0.00
2019-04-07T02:06:53.654Z,0.00
2019-04-07T02:07:53.235Z,0.00
2019-04-07T02:08:52.871Z,0.00
2019-04-07T02:09:53.325Z,0.00
2019-04-07T02:10:52.628Z,0.00
2019-04-07T02:11:52.987Z,0.00
2019-04-07T02:12:53.168Z,0.00
2019-04-07T02:13:53.254Z,0.00
2019-04-07T02:14:53.270Z,0.00
2019-04-07T02:15:52.695Z,0.00
2019-04-07T02:16:52.681Z,0.00
2019-04-07T02:17:52.872Z,0.00
2019-04-07T02:18:53.268Z,0.00
2019-04-07T02:19:52.504Z,0.00
2019-04-07T02:20:53.029Z,0.00
2019-04-07T02:21:53.011Z,0.00
2019-04-07T02:22:53.137Z,0.00
2019-04-07T02:23:52.689Z,0.00
2019-04-07T02:24:52.450Z,0.00
2019-04-07T02:25:52.750Z,0.00
2019-04-07T02:26:52.447Z,0.00
2019-04-07T02:27:52.473Z,0.00
2019-04-07T02:28:52.609Z,0.00
2019-04-07T02:29:52.830Z,0.00
2019-04-07T02:30:52.381Z,0.00
2019-04-07T02:31:52.374Z,0.00
2019-04-07T02:32:52.521Z,0.00
2019-04-07T02:33:52.520Z,0.00
2019-04-07T02:34:53.044Z,0.00
2019-04-07T02:35:52.554Z,0.00
2019-04-07T02:36:52.324Z,0.00
2019-04-07T02:37:52.886Z,0.00
2019-04-07T02:38:52.333Z,0.00
2019-04-07T02:39:52.294Z,0.00
2019-04-07T02:40:52.282Z,0.00
2019-04-07T02:41:52.285Z,0.00
2019-04-07T02:42:52.252Z,0.00
2019-04-07T02:43:53.001Z,0.00
2019-04-07T02:44:52.540Z,0.00
2019-04-07T02:45:52.383Z,0.00
2019-04-07T02:46:52.213Z,0.00
2019-04-07T02:47:53.120Z,0.00
2019-04-07T02:48:52.206Z,0.00
2019-04-07T02:49:52.656Z,0.00
2019-04-07T02:50:52.858Z,0.00
2019-04-07T02:51:52.982Z,0.00
2019-04-07T02:52:52.863Z,0.00
2019-04-07T02:53:53.133Z,0.00
2019-04-07T02:54:52.950Z,0.00
2019-04-07T02:55:52.109Z,0.00
2019-04-07T02:56:52.408Z,0.00
2019-04-07T02:57:52.129Z,0.00
2019-04-07T02:58:52.738Z,0.00
2019-04-07T02:59:52.083Z,0.00
2019-04-07T03:00:52.280Z,0.00
2019-04-07T03:01:52.098Z,0.00
2019-04-07T03:02:52.030Z,0.00
2019-04-07T03:03:52.045Z,0.00
2019-04-07T03:04:52.438Z,0.00
2019-04-07T03:05:52.016Z,0.00
2019-04-07T03:06:53.486Z,0.00
2019-04-07T03:07:53.028Z,0.00
2019-04-07T03:08:52.632Z,0.00
2019-04-07T03:09:51.948Z,0.00
2019-04-07T03:10:51.945Z,0.00
2019-04-07T03:11:52.460Z,0.00
2019-04-07T03:12:51.960Z,0.00
2019-04-07T03:13:52.158Z,0.00
2019-04-07T03:14:52.919Z,0.00
2019-04-07T03:15:52.755Z,0.00
2019-04-07T03:16:51.925Z,0.00
2019-04-07T03:17:52.001Z,0.00
2019-04-07T03:18:52.830Z,0.00
2019-04-07T03:19:52.164Z,0.00
2019-04-07T03:20:51.833Z,0.00
2019-04-07T03:21:52.495Z,0.00
2019-04-07T03:22:52.616Z,0.00
2019-04-07T03:23:51.813Z,0.00
2019-04-07T03:24:52.090Z,0.00
2019-04-07T03:25:52.620Z,0.00
2019-04-07T03:26:51.766Z,0.00
2019-04-07T03:27:52.706Z,0.00
2019-04-07T03:28:52.518Z,0.00
2019-04-07T03:29:51.744Z,0.00
2019-04-07T03:30:52.455Z,0.00
2019-04-07T03:31:53.225Z,0.00
2019-04-07T03:32:54.406Z,0.00
2019-04-07T03:33:52.317Z,0.00
2019-04-07T03:34:53.535Z,0.00
2019-04-07T03:35:55.329Z,0.00
2019-04-07T03:37:14.963Z,0.00
2019-04-07T03:37:53.198Z,0.00
2019-04-07T03:38:51.678Z,0.00
2019-04-07T03:39:52.522Z,0.00
2019-04-07T03:40:51.660Z,0.00
2019-04-07T03:41:52.615Z,0.00
2019-04-07T03:42:51.583Z,0.00
2019-04-07T03:43:51.573Z,0.00
2019-04-07T03:44:51.591Z,0.00
2019-04-07T03:45:51.938Z,0.00
2019-04-07T03:46:51.555Z,0.00
2019-04-07T03:47:52.359Z,0.00
2019-04-07T03:48:51.527Z,0.00
2019-04-07T03:49:51.524Z,0.00
2019-04-07T03:50:51.494Z,0.00
2019-04-07T03:51:51.639Z,0.00
2019-04-07T03:52:51.482Z,0.00
2019-04-07T03:53:52.091Z,0.00
2019-04-07T03:54:51.463Z,0.00
2019-04-07T03:55:51.455Z,0.00
2019-04-07T03:56:51.819Z,0.00
2019-04-07T03:57:51.416Z,0.00
2019-04-07T03:58:51.425Z,0.00
2019-04-07T03:59:51.429Z,0.00
2019-04-07T04:00:51.382Z,0.00
2019-04-07T04:01:51.730Z,0.00
2019-04-07T04:02:51.377Z,4.00
2019-04-07T04:03:51.447Z,4.00
2019-04-07T04:04:51.588Z,0.00
2019-04-07T04:05:53.458Z,0.00
2019-04-07T04:06:51.566Z,4.00
2019-04-07T04:07:51.321Z,0.00
2019-04-07T04:08:51.304Z,4.00
2019-04-07T04:09:51.770Z,4.00
2019-04-07T04:10:51.712Z,4.00
2019-04-07T04:11:51.648Z,4.00
2019-04-07T04:12:51.315Z,8.00
2019-04-07T04:13:51.247Z,8.00
2019-04-07T04:14:51.258Z,8.00
2019-04-07T04:15:51.562Z,8.00
2019-04-07T04:16:51.223Z,12.00
2019-04-07T04:17:51.368Z,12.00
2019-04-07T04:18:51.188Z,16.00
2019-04-07T04:19:51.906Z,16.00
2019-04-07T04:20:51.180Z,16.00
2019-04-07T04:21:51.468Z,20.00
2019-04-07T04:22:51.154Z,24.00
2019-04-07T04:23:51.664Z,24.00
2019-04-07T04:24:51.127Z,32.00
2019-04-07T04:25:51.127Z,32.00
2019-04-07T04:26:51.913Z,36.00
2019-04-07T04:27:51.130Z,40.00
2019-04-07T04:28:51.877Z,44.00
2019-04-07T04:29:53.025Z,48.00
2019-04-07T04:30:51.083Z,52.00
2019-04-07T04:31:51.080Z,56.00
2019-04-07T04:32:51.038Z,60.00
2019-04-07T04:33:51.733Z,68.00
2019-04-07T04:34:51.306Z,68.00
2019-04-07T04:35:51.852Z,72.00
2019-04-07T04:36:51.760Z,84.00
2019-04-07T04:37:53.456Z,88.00
2019-04-07T04:38:52.362Z,92.00
2019-04-07T04:39:51.250Z,100.00
2019-04-07T04:40:50.943Z,104.00
2019-04-07T04:41:51.807Z,108.00
2019-04-07T04:42:51.801Z,116.00
2019-04-07T04:43:50.932Z,124.00
2019-04-07T04:44:51.053Z,128.00
2019-04-07T04:45:50.892Z,136.00
2019-04-07T04:46:50.907Z,144.00
2019-04-07T04:47:51.625Z,152.00
2019-04-07T04:48:51.368Z,156.00
2019-04-07T04:49:50.839Z,164.00
2019-04-07T04:50:50.842Z,172.00
2019-04-07T04:51:50.837Z,176.00
2019-04-07T04:52:50.824Z,184.00
2019-04-07T04:53:51.700Z,192.00
2019-04-07T04:54:51.803Z,200.00
2019-04-07T04:55:51.473Z,208.00
2019-04-07T04:56:51.575Z,216.00
2019-04-07T04:57:51.205Z,224.00
2019-04-07T04:58:50.840Z,228.00
2019-04-07T04:59:50.775Z,236.00
2019-04-07T05:00:50.923Z,244.00
2019-04-07T05:01:51.289Z,252.00
2019-04-07T05:02:51.324Z,256.00
2019-04-07T05:03:52.363Z,264.00
2019-04-07T05:04:50.697Z,272.00
2019-04-07T05:05:51.235Z,280.00
2019-04-07T05:06:51.462Z,284.00
2019-04-07T05:07:59.269Z,296.00
2019-04-07T05:08:51.632Z,304.00
2019-04-07T05:09:53.932Z,308.00
2019-04-07T05:10:50.980Z,320.00
2019-04-07T05:11:51.346Z,324.00
2019-04-07T05:12:50.585Z,328.00
2019-04-07T05:13:50.576Z,336.00
2019-04-07T05:14:50.558Z,344.00
2019-04-07T05:15:51.088Z,352.00
2019-04-07T05:16:50.556Z,356.00
2019-04-07T05:17:50.525Z,364.00
2019-04-07T05:18:50.515Z,368.00
2019-04-07T05:19:50.976Z,372.00
2019-04-07T05:20:50.487Z,380.00
2019-04-07T05:21:50.528Z,388.00
2019-04-07T05:22:51.217Z,392.00
2019-04-07T05:23:50.463Z,400.00
2019-04-07T05:24:50.538Z,404.00
2019-04-07T05:25:50.511Z,412.00
2019-04-07T05:26:50.898Z,416.00
2019-04-07T05:27:50.422Z,424.00
2019-04-07T05:28:50.516Z,428.00
2019-04-07T05:29:51.028Z,432.00
2019-04-07T05:30:50.398Z,440.00
2019-04-07T05:31:50.406Z,444.00
2019-04-07T05:32:50.367Z,448.00
2019-04-07T05:33:50.842Z,452.00
2019-04-07T05:34:50.563Z,460.00
2019-04-07T05:35:50.442Z,464.00
2019-04-07T05:36:50.375Z,468.00
2019-04-07T05:38:00.782Z,472.00
2019-04-07T05:38:51.299Z,480.00
2019-04-07T05:39:50.292Z,484.00
2019-04-07T05:40:50.946Z,484.00
2019-04-07T05:41:50.262Z,492.00
2019-04-07T05:42:50.982Z,496.00
2019-04-07T05:43:50.291Z,504.00
2019-04-07T05:44:50.681Z,504.00
2019-04-07T05:45:50.921Z,508.00
2019-04-07T05:46:50.229Z,512.00
2019-04-07T05:47:50.844Z,520.00
2019-04-07T05:48:52.004Z,520.00
2019-04-07T05:49:54.470Z,524.00
2019-04-07T05:50:51.383Z,532.00
2019-04-07T05:51:50.232Z,532.00
2019-04-07T05:52:50.754Z,536.00
2019-04-07T05:53:50.138Z,544.00
2019-04-07T05:54:51.465Z,544.00
2019-04-07T05:55:53.441Z,548.00
2019-04-07T05:56:50.264Z,552.00
2019-04-07T05:57:50.100Z,556.00
2019-04-07T05:58:50.075Z,556.00
2019-04-07T05:59:50.386Z,560.00
2019-04-07T06:00:50.235Z,560.00
2019-04-07T06:01:52.512Z,564.00
2019-04-07T06:02:51.629Z,568.00
2019-04-07T06:03:50.027Z,576.00
2019-04-07T06:04:50.017Z,576.00
2019-04-07T06:05:51.180Z,580.00
2019-04-07T06:06:52.689Z,580.00
2019-04-07T06:07:51.468Z,584.00
2019-04-07T06:08:50.643Z,588.00
2019-04-07T06:09:51.237Z,588.00
2019-04-07T06:10:50.052Z,592.00
2019-04-07T06:11:49.927Z,596.00
2019-04-07T06:12:49.973Z,600.00
2019-04-07T06:13:50.500Z,600.00
2019-04-07T06:14:49.902Z,604.00
2019-04-07T06:15:51.379Z,608.00
2019-04-07T06:16:53.626Z,612.00
2019-04-07T06:17:51.206Z,612.00
2019-04-07T06:18:50.120Z,616.00
2019-04-07T06:19:51.624Z,620.00
2019-04-07T06:20:50.487Z,620.00
2019-04-07T06:21:49.930Z,624.00
2019-04-07T06:22:52.809Z,624.00
2019-04-07T06:23:49.819Z,628.00
2019-04-07T06:24:50.246Z,632.00
2019-04-07T06:25:50.130Z,632.00
2019-04-07T06:26:50.349Z,640.00
2019-04-07T06:27:50.094Z,640.00
2019-04-07T06:28:54.586Z,640.00
2019-04-07T06:29:51.242Z,644.00
2019-04-07T06:30:49.721Z,644.00
2019-04-07T06:31:49.835Z,644.00
2019-04-07T06:32:49.865Z,648.00
2019-04-07T06:33:49.945Z,648.00
2019-04-07T06:34:50.656Z,652.00
2019-04-07T06:35:49.936Z,652.00
2019-04-07T06:36:53.628Z,656.00
2019-04-07T06:37:50.839Z,656.00
2019-04-07T06:38:51.792Z,660.00
2019-04-07T06:39:51.552Z,664.00
2019-04-07T06:40:50.826Z,660.00
2019-04-07T06:41:49.599Z,664.00
2019-04-07T06:42:49.935Z,664.00
2019-04-07T06:43:49.704Z,672.00
2019-04-07T06:44:51.110Z,672.00
2019-04-07T06:45:52.786Z,672.00
2019-04-07T06:46:49.603Z,672.00
2019-04-07T06:47:49.742Z,676.00
2019-04-07T06:48:49.711Z,676.00
2019-04-07T06:49:49.507Z,676.00
2019-04-07T06:50:56.027Z,676.00
2019-04-07T06:51:51.132Z,684.00
2019-04-07T06:52:49.475Z,684.00
2019-04-07T06:53:50.255Z,680.00
2019-04-07T06:54:53.495Z,684.00
2019-04-07T06:55:50.674Z,688.00
2019-04-07T06:56:49.891Z,688.00
2019-04-07T06:57:49.431Z,688.00
2019-04-07T06:58:49.441Z,688.00
2019-04-07T06:59:50.025Z,684.00
2019-04-07T07:00:51.792Z,684.00
2019-04-07T07:01:49.375Z,688.00
2019-04-07T07:02:49.943Z,688.00
2019-04-07T07:03:49.696Z,688.00
2019-04-07T07:04:49.698Z,688.00
2019-04-07T07:05:49.545Z,692.00
2019-04-07T07:06:49.312Z,692.00
2019-04-07T07:07:49.829Z,692.00
2019-04-07T07:08:52.904Z,696.00
2019-04-07T07:09:50.300Z,696.00
2019-04-07T07:10:50.554Z,696.00
2019-04-07T07:11:49.639Z,696.00
2019-04-07T07:12:49.601Z,700.00
2019-04-07T07:13:49.915Z,700.00
2019-04-07T07:14:49.615Z,704.00
2019-04-07T07:15:49.383Z,704.00
2019-04-07T07:16:49.888Z,704.00
2019-04-07T07:17:50.770Z,704.00
2019-04-07T07:18:51.192Z,708.00
2019-04-07T07:19:49.798Z,708.00
2019-04-07T07:20:50.554Z,708.00
2019-04-07T07:21:49.153Z,704.00
2019-04-07T07:22:49.627Z,708.00
2019-04-07T07:23:50.005Z,708.00
2019-04-07T07:24:49.195Z,712.00
2019-04-07T07:25:49.879Z,712.00
2019-04-07T07:26:49.505Z,712.00
2019-04-07T07:27:49.086Z,712.00
2019-04-07T07:28:49.186Z,712.00
2019-04-07T07:29:52.548Z,712.00
2019-04-07T07:30:51.895Z,712.00
2019-04-07T07:31:52.002Z,716.00
2019-04-07T07:32:49.748Z,716.00
2019-04-07T07:33:49.573Z,716.00
2019-04-07T07:34:49.645Z,716.00
2019-04-07T07:35:49.314Z,716.00
2019-04-07T07:36:52.316Z,716.00
2019-04-07T07:37:50.045Z,720.00
2019-04-07T07:38:57.594Z,716.00
2019-04-07T07:39:50.773Z,716.00
2019-04-07T07:40:49.372Z,720.00
2019-04-07T07:41:51.690Z,720.00
2019-04-07T07:42:50.873Z,720.00
2019-04-07T07:43:48.915Z,724.00
2019-04-07T07:44:49.294Z,720.00
2019-04-07T07:45:48.920Z,724.00
2019-04-07T07:46:50.422Z,724.00
2019-04-07T07:47:52.286Z,720.00
2019-04-07T07:48:50.063Z,720.00
2019-04-07T07:49:48.843Z,720.00
2019-04-07T07:50:48.865Z,720.00
2019-04-07T07:51:48.811Z,720.00
2019-04-07T07:52:51.273Z,724.00
2019-04-07T07:53:48.834Z,720.00
2019-04-07T07:54:49.422Z,724.00
2019-04-07T07:55:49.013Z,724.00
2019-04-07T07:56:50.494Z,724.00
2019-04-07T07:57:49.145Z,728.00
2019-04-07T07:58:49.318Z,724.00
2019-04-07T07:59:48.742Z,728.00
2019-04-07T08:00:48.739Z,728.00
2019-04-07T08:01:51.151Z,728.00
2019-04-07T08:02:50.909Z,732.00
2019-04-07T08:03:51.846Z,732.00
2019-04-07T08:04:48.807Z,728.00
2019-04-07T08:05:48.737Z,732.00
2019-04-07T08:06:48.979Z,732.00
2019-04-07T08:07:50.165Z,732.00
2019-04-07T08:08:48.866Z,732.00
2019-04-07T08:09:49.132Z,732.00
2019-04-07T08:10:48.629Z,736.00
2019-04-07T08:11:48.972Z,732.00
2019-04-07T08:12:49.606Z,732.00
2019-04-07T08:13:48.585Z,732.00
2019-04-07T08:14:52.205Z,732.00
2019-04-07T08:15:50.342Z,736.00
2019-04-07T08:16:49.053Z,736.00
2019-04-07T08:17:48.617Z,740.00
2019-04-07T08:18:48.525Z,740.00
2019-04-07T08:19:48.502Z,736.00
2019-04-07T08:20:49.057Z,740.00
2019-04-07T08:21:51.000Z,744.00
2019-04-07T08:22:49.262Z,740.00
2019-04-07T08:23:49.127Z,744.00
2019-04-07T08:24:51.160Z,744.00
2019-04-07T08:25:48.922Z,744.00
2019-04-07T08:26:48.865Z,744.00
2019-04-07T08:27:48.771Z,744.00
2019-04-07T08:28:49.249Z,744.00
2019-04-07T08:29:48.563Z,744.00
2019-04-07T08:30:49.098Z,748.00
2019-04-07T08:31:51.548Z,748.00
2019-04-07T08:32:50.022Z,748.00
2019-04-07T08:33:50.713Z,748.00
2019-04-07T08:34:48.335Z,748.00
2019-04-07T08:35:49.063Z,748.00
2019-04-07T08:36:48.321Z,748.00
2019-04-07T08:37:49.206Z,752.00
2019-04-07T08:38:51.752Z,748.00
2019-04-07T08:39:49.701Z,752.00
2019-04-07T08:40:49.671Z,752.00
2019-04-07T08:41:48.308Z,748.00
2019-04-07T08:42:49.647Z,752.00
2019-04-07T08:43:48.411Z,752.00
2019-04-07T08:44:48.233Z,756.00
2019-04-07T08:45:48.234Z,712.00
2019-04-07T08:46:48.542Z,728.00
2019-04-07T08:47:49.931Z,756.00
2019-04-07T08:48:51.775Z,756.00
2019-04-07T08:49:49.531Z,756.00
2019-04-07T08:50:48.598Z,760.00
2019-04-07T08:51:48.353Z,756.00
2019-04-07T08:52:48.173Z,756.00
2019-04-07T08:53:48.426Z,760.00
2019-04-07T08:54:50.597Z,760.00
2019-04-07T08:55:49.883Z,756.00
2019-04-07T08:56:48.668Z,760.00
2019-04-07T08:57:48.085Z,764.00
2019-04-07T08:58:48.124Z,764.00
2019-04-07T08:59:48.160Z,764.00
2019-04-07T09:00:51.017Z,764.00
2019-04-07T09:01:52.281Z,768.00
2019-04-07T09:03:00.900Z,768.00
2019-04-07T09:03:49.642Z,768.00
2019-04-07T09:04:51.280Z,772.00
2019-04-07T09:05:48.001Z,776.00
2019-04-07T09:06:48.777Z,776.00
2019-04-07T09:07:47.991Z,776.00
2019-04-07T09:08:47.958Z,776.00
2019-04-07T09:09:49.081Z,776.00
2019-04-07T09:10:49.617Z,776.00
2019-04-07T09:11:48.074Z,776.00
2019-04-07T09:12:48.576Z,784.00
2019-04-07T09:13:48.654Z,784.00
2019-04-07T09:14:47.924Z,784.00
2019-04-07T09:15:49.646Z,784.00
2019-04-07T09:16:52.165Z,784.00
2019-04-07T09:17:49.520Z,788.00
2019-04-07T09:18:54.303Z,784.00
2019-04-07T09:19:49.558Z,788.00
2019-04-07T09:20:49.322Z,788.00
2019-04-07T09:21:50.461Z,784.00
2019-04-07T09:22:51.136Z,788.00
2019-04-07T09:23:47.903Z,788.00
2019-04-07T09:24:48.315Z,792.00
2019-04-07T09:25:47.781Z,792.00
2019-04-07T09:26:47.773Z,792.00
2019-04-07T09:27:48.604Z,792.00
2019-04-07T09:28:47.748Z,792.00
2019-04-07T09:29:47.855Z,796.00
2019-04-07T09:30:48.329Z,796.00
2019-04-07T09:31:47.753Z,800.00
2019-04-07T09:32:48.566Z,800.00
2019-04-07T09:33:48.969Z,796.00
2019-04-07T09:34:50.551Z,800.00
2019-04-07T09:35:47.673Z,800.00
2019-04-07T09:36:50.165Z,800.00
2019-04-07T09:37:48.208Z,800.00
2019-04-07T09:38:50.027Z,800.00
2019-04-07T09:39:56.979Z,800.00
2019-04-07T09:40:48.663Z,804.00
2019-04-07T09:41:47.601Z,804.00
2019-04-07T09:42:47.705Z,804.00
2019-04-07T09:43:48.443Z,804.00
2019-04-07T09:44:47.587Z,804.00
2019-04-07T09:45:47.958Z,800.00
2019-04-07T09:46:50.285Z,800.00
2019-04-07T09:47:48.474Z,804.00
2019-04-07T09:48:50.945Z,800.00
2019-04-07T09:49:49.164Z,804.00
2019-04-07T09:50:48.158Z,800.00
2019-04-07T09:51:47.496Z,800.00
2019-04-07T09:52:49.051Z,804.00
2019-04-07T09:53:50.231Z,804.00
2019-04-07T09:54:47.455Z,804.00
2019-04-07T09:55:47.461Z,804.00
2019-04-07T09:56:47.450Z,804.00
2019-04-07T09:57:50.267Z,808.00
2019-04-07T09:58:47.442Z,804.00
2019-04-07T09:59:50.773Z,808.00
2019-04-07T10:00:50.192Z,808.00
2019-04-07T10:01:47.435Z,804.00
2019-04-07T10:02:48.067Z,808.00
2019-04-07T10:03:47.379Z,812.00
2019-04-07T10:04:47.351Z,812.00
2019-04-07T10:05:47.335Z,812.00
2019-04-07T10:06:49.472Z,812.00
2019-04-07T10:07:47.892Z,812.00
2019-04-07T10:08:47.797Z,812.00
2019-04-07T10:09:47.303Z,816.00
2019-04-07T10:10:47.322Z,816.00
2019-04-07T10:11:47.431Z,816.00
2019-04-07T10:12:47.266Z,816.00
2019-04-07T10:13:47.518Z,824.00
2019-04-07T10:14:47.254Z,820.00
2019-04-07T10:15:47.470Z,824.00
2019-04-07T10:16:47.362Z,824.00
2019-04-07T10:17:47.207Z,824.00
2019-04-07T10:18:47.350Z,828.00
2019-04-07T10:19:47.793Z,824.00
2019-04-07T10:20:47.169Z,820.00
2019-04-07T10:21:47.534Z,820.00
2019-04-07T10:22:47.385Z,828.00
2019-04-07T10:23:49.439Z,828.00
2019-04-07T10:24:47.187Z,824.00
2019-04-07T10:25:47.112Z,828.00
2019-04-07T10:26:47.349Z,828.00
2019-04-07T10:27:47.094Z,832.00
2019-04-07T10:28:49.442Z,836.00
2019-04-07T10:29:47.108Z,832.00
2019-04-07T10:30:47.210Z,832.00
2019-04-07T10:31:47.502Z,828.00
2019-04-07T10:32:47.028Z,832.00
2019-04-07T10:33:47.167Z,832.00
2019-04-07T10:34:47.015Z,832.00
2019-04-07T10:35:47.579Z,832.00
2019-04-07T10:36:47.520Z,836.00
2019-04-07T10:37:47.179Z,836.00
2019-04-07T10:38:48.023Z,836.00
2019-04-07T10:39:46.952Z,836.00
2019-04-07T10:40:46.961Z,836.00
2019-04-07T10:41:47.525Z,840.00
2019-04-07T10:42:46.916Z,840.00
2019-04-07T10:43:47.784Z,840.00
2019-04-07T10:44:46.941Z,844.00
2019-04-07T10:45:46.903Z,844.00
2019-04-07T10:46:47.130Z,844.00
2019-04-07T10:47:46.880Z,844.00
2019-04-07T10:48:47.738Z,848.00
2019-04-07T10:49:57.929Z,848.00
2019-04-07T10:50:48.064Z,852.00
2019-04-07T10:51:47.678Z,852.00
2019-04-07T10:52:47.000Z,844.00
2019-04-07T10:53:47.260Z,844.00
2019-04-07T10:54:47.260Z,848.00
2019-04-07T10:55:46.778Z,856.00
2019-04-07T10:56:47.925Z,852.00
2019-04-07T10:57:46.958Z,856.00
2019-04-07T10:58:47.203Z,852.00
2019-04-07T10:59:47.440Z,856.00
2019-04-07T11:00:49.418Z,856.00
2019-04-07T11:01:46.780Z,856.00
2019-04-07T11:02:46.713Z,852.00
2019-04-07T11:03:46.836Z,852.00
2019-04-07T11:04:47.375Z,860.00
2019-04-07T11:05:46.660Z,856.00
2019-04-07T11:06:46.666Z,860.00
2019-04-07T11:07:46.642Z,864.00
2019-04-07T11:08:46.645Z,864.00
2019-04-07T11:09:47.514Z,860.00
2019-04-07T11:10:46.789Z,856.00
2019-04-07T11:11:48.139Z,856.00
2019-04-07T11:12:46.906Z,856.00
2019-04-07T11:13:46.979Z,868.00
2019-04-07T11:14:46.634Z,868.00
2019-04-07T11:15:46.562Z,868.00
2019-04-07T11:16:47.036Z,864.00
2019-04-07T11:17:47.239Z,868.00
2019-04-07T11:18:46.520Z,868.00
2019-04-07T11:19:46.532Z,868.00
2019-04-07T11:20:47.209Z,872.00
2019-04-07T11:21:46.765Z,864.00
2019-04-07T11:22:46.475Z,864.00
2019-04-07T11:23:46.885Z,864.00
2019-04-07T11:24:46.964Z,872.00
2019-04-07T11:25:47.726Z,872.00
2019-04-07T11:26:46.465Z,876.00
2019-04-07T11:27:46.808Z,888.00
2019-04-07T11:28:46.919Z,900.00
2019-04-07T11:29:46.407Z,900.00
2019-04-07T11:30:47.254Z,900.00
2019-04-07T11:31:46.533Z,900.00
2019-04-07T11:32:46.382Z,900.00
2019-04-07T11:33:47.030Z,912.00
2019-04-07T11:34:46.680Z,908.00
2019-04-07T11:35:46.331Z,912.00
2019-04-07T11:36:46.336Z,916.00
2019-04-07T11:37:46.320Z,916.00
2019-04-07T11:38:46.327Z,916.00
2019-04-07T11:39:46.374Z,920.00
2019-04-07T11:40:50.157Z,920.00
2019-04-07T11:41:47.100Z,920.00
2019-04-07T11:42:46.267Z,924.00
2019-04-07T11:43:46.853Z,928.00
2019-04-07T11:44:46.773Z,924.00
2019-04-07T11:45:56.463Z,924.00
2019-04-07T11:46:47.226Z,928.00
2019-04-07T11:47:46.863Z,932.00
2019-04-07T11:48:46.837Z,932.00
2019-04-07T11:49:46.267Z,932.00
2019-04-07T11:50:46.209Z,936.00
2019-04-07T11:51:46.749Z,932.00
2019-04-07T11:52:46.244Z,928.00
2019-04-07T11:53:46.129Z,936.00
2019-04-07T11:54:46.131Z,936.00
2019-04-07T11:55:46.488Z,936.00
2019-04-07T11:56:47.140Z,932.00
2019-04-07T11:57:46.081Z,932.00
2019-04-07T11:58:46.080Z,936.00
2019-04-07T11:59:46.169Z,936.00
2019-04-07T12:00:46.299Z,944.00
2019-04-07T12:01:49.502Z,948.00
2019-04-07T12:02:46.937Z,948.00
2019-04-07T12:03:46.367Z,948.00
2019-04-07T12:04:46.686Z,948.00
2019-04-07T12:05:46.126Z,944.00
2019-04-07T12:06:48.829Z,940.00
2019-04-07T12:07:45.984Z,936.00
2019-04-07T12:08:46.695Z,932.00
2019-04-07T12:09:46.701Z,932.00
2019-04-07T12:10:56.207Z,940.00
2019-04-07T12:11:46.961Z,940.00
2019-04-07T12:12:45.960Z,944.00
2019-04-07T12:13:46.666Z,948.00
2019-04-07T12:14:50.005Z,948.00
2019-04-07T12:15:46.904Z,948.00
2019-04-07T12:16:46.016Z,952.00
2019-04-07T12:17:46.042Z,960.00
2019-04-07T12:18:49.371Z,972.00
2019-04-07T12:19:47.321Z,972.00
2019-04-07T12:20:46.186Z,980.00
2019-04-07T12:21:45.825Z,980.00
2019-04-07T12:22:48.751Z,984.00
2019-04-07T12:23:46.470Z,984.00
2019-04-07T12:24:45.799Z,980.00
2019-04-07T12:25:46.119Z,984.00
2019-04-07T12:26:46.295Z,980.00
2019-04-07T12:27:46.205Z,976.00
2019-04-07T12:28:49.137Z,972.00
2019-04-07T12:29:46.028Z,968.00
2019-04-07T12:30:45.726Z,964.00
2019-04-07T12:31:46.478Z,964.00
2019-04-07T12:32:46.563Z,972.00
2019-04-07T12:33:45.709Z,984.00
2019-04-07T12:34:47.746Z,980.00
2019-04-07T12:35:47.811Z,984.00
2019-04-07T12:36:46.648Z,984.00
2019-04-07T12:37:46.596Z,968.00
2019-04-07T12:38:46.200Z,968.00
2019-04-07T12:39:49.389Z,968.00
2019-04-07T12:40:46.223Z,972.00
2019-04-07T12:41:45.607Z,976.00
2019-04-07T12:42:45.595Z,984.00
2019-04-07T12:43:49.180Z,1000.00
2019-04-07T12:44:46.188Z,1012.00
2019-04-07T12:45:46.638Z,1020.00